createdAt,value
2023-12-05T00:02:15.928Z,19.5
2023-12-05T00:22:15.842Z,19.5
2023-12-05T00:42:15.931Z,19.4
2023-12-05T01:02:15.826Z,19.3
2023-12-05T01:22:15.853Z,19.3
2023-12-05T01:42:15.905Z,19.2
2023-12-05T02:02:15.510Z,19.2
2023-12-05T02:22:15.529Z,19.1
2023-12-05T02:42:15.787Z,19.1
2023-12-05T03:02:15.750Z,19.0
2023-12-05T03:22:15.637Z,19.3
2023-12-05T03:42:15.532Z,19.6
2023-12-05T04:02:15.680Z,19.8
2023-12-05T04:22:15.464Z,19.9
2023-12-05T04:42:15.531Z,19.9
2023-12-05T05:02:15.388Z,19.8
2023-12-05T05:22:15.469Z,19.9
2023-12-05T05:42:15.462Z,20.0
2023-12-05T06:02:15.326Z,20.2
2023-12-05T06:22:15.514Z,20.3
2023-12-05T06:42:15.204Z,20.5
2023-12-05T07:02:15.395Z,20.5
2023-12-05T07:22:15.515Z,20.6
2023-12-05T07:42:15.112Z,20.7
2023-12-05T08:02:15.054Z,20.7
2023-12-05T08:22:15.352Z,20.8
2023-12-05T08:42:15.248Z,20.8
2023-12-05T09:02:15.311Z,20.8
2023-12-05T09:22:15.229Z,20.8
2023-12-05T09:42:15.108Z,20.8
2023-12-05T10:02:15.067Z,20.9
2023-12-05T10:22:15.165Z,20.9
2023-12-05T10:42:14.868Z,20.9
2023-12-05T11:02:14.842Z,20.9
2023-12-05T11:22:14.826Z,20.9
2023-12-05T11:42:14.785Z,20.9
2023-12-05T12:02:14.738Z,20.9
2023-12-05T12:22:14.763Z,20.9
2023-12-05T12:42:14.779Z,20.9
2023-12-05T13:02:14.827Z,20.9
2023-12-05T13:22:14.726Z,21.0
2023-12-05T13:42:14.629Z,21.0
2023-12-05T14:02:14.678Z,21.0
2023-12-05T14:22:14.621Z,21.0
2023-12-05T14:42:14.576Z,21.0
2023-12-05T15:02:14.537Z,21.0
2023-12-05T15:22:14.724Z,21.0
2023-12-05T15:42:14.875Z,21.0
2023-12-05T16:02:14.750Z,21.0
2023-12-05T16:22:14.928Z,21.0
2023-12-05T16:42:14.680Z,21.0
2023-12-05T17:02:14.495Z,21.1
2023-12-05T17:22:14.437Z,21.1
2023-12-05T17:42:14.649Z,21.1
2023-12-05T18:02:14.600Z,21.1
2023-12-05T18:22:14.438Z,21.2
2023-12-05T18:42:14.514Z,21.2
2023-12-05T19:02:14.545Z,21.1
2023-12-05T19:22:14.496Z,21.0
2023-12-05T19:42:14.353Z,21.0
2023-12-05T20:02:14.505Z,21.0
2023-12-05T20:22:14.387Z,20.8
2023-12-05T20:42:14.393Z,20.6
2023-12-05T21:02:14.246Z,20.5
2023-12-05T21:22:14.389Z,20.3
2023-12-05T21:42:14.327Z,20.2
2023-12-05T22:02:14.346Z,20.1
2023-12-05T22:22:14.239Z,19.9
2023-12-05T22:42:14.725Z,19.8
2023-12-05T23:02:14.046Z,19.8
2023-12-05T23:22:14.053Z,19.7
2023-12-05T23:42:14.224Z,19.6
